sensor_id;sensor_type;location;lat;lon;timestamp;temperature;humidity
21318;DHT22;10818;50.830;6.524;2023-07-13T00:03:36;17.50;99.90
21318;DHT22;10818;50.830;6.524;2023-07-13T00:08:37;17.40;99.90
21318;DHT22;10818;50.830;6.524;2023-07-13T00:13:38;17.40;99.90
21318;DHT22;10818;50.830;6.524;2023-07-13T00:18:39;17.20;99.90
21318;DHT22;10818;50.830;6.524;2023-07-13T00:23:40;17.10;99.90
21318;DHT22;10818;50.830;6.524;2023-07-13T00:28:41;17.10;99.90
21318;DHT22;10818;50.830;6.524;2023-07-13T00:33:42;17.00;99.90
21318;DHT22;10818;50.830;6.524;2023-07-13T00:38:42;16.90;99.90
21318;DHT22;10818;50.830;6.524;2023-07-13T00:43:43;17.00;99.90
21318;DHT22;10818;50.830;6.524;2023-07-13T00:48:44;16.80;99.90
21318;DHT22;10818;50.830;6.524;2023-07-13T00:53:46;16.70;99.90
21318;DHT22;10818;50.830;6.524;2023-07-13T00:58:46;16.60;99.90
21318;DHT22;10818;50.830;6.524;2023-07-13T01:03:47;16.60;99.90
21318;DHT22;10818;50.830;6.524;2023-07-13T01:08:47;16.70;99.90
21318;DHT22;10818;50.830;6.524;2023-07-13T01:13:49;16.80;99.90
21318;DHT22;10818;50.830;6.524;2023-07-13T01:18:49;16.80;99.90
21318;DHT22;10818;50.830;6.524;2023-07-13T01:23:50;16.80;99.90
21318;DHT22;10818;50.830;6.524;2023-07-13T01:28:50;16.80;99.90
21318;DHT22;10818;50.830;6.524;2023-07-13T01:33:50;16.60;99.90
21318;DHT22;10818;50.830;6.524;2023-07-13T01:38:51;16.60;99.90
21318;DHT22;10818;50.830;6.524;2023-07-13T01:43:51;16.50;99.90
21318;DHT22;10818;50.830;6.524;2023-07-13T01:48:52;16.30;99.90
21318;DHT22;10818;50.830;6.524;2023-07-13T01:53:52;16.30;99.90
21318;DHT22;10818;50.830;6.524;2023-07-13T01:58:53;16.10;99.90
21318;DHT22;10818;50.830;6.524;2023-07-13T02:03:53;16.00;99.90
21318;DHT22;10818;50.830;6.524;2023-07-13T02:08:54;15.90;99.90
21318;DHT22;10818;50.830;6.524;2023-07-13T02:13:54;15.90;99.90
21318;DHT22;10818;50.830;6.524;2023-07-13T02:18:55;15.80;99.90
21318;DHT22;10818;50.830;6.524;2023-07-13T02:23:56;15.80;99.90
21318;DHT22;10818;50.830;6.524;2023-07-13T02:28:57;15.90;99.90
21318;DHT22;10818;50.830;6.524;2023-07-13T02:33:58;15.80;99.90
21318;DHT22;10818;50.830;6.524;2023-07-13T02:39:02;15.90;99.90
21318;DHT22;10818;50.830;6.524;2023-07-13T02:44:03;15.80;99.90
21318;DHT22;10818;50.830;6.524;2023-07-13T02:49:04;15.80;99.90
21318;DHT22;10818;50.830;6.524;2023-07-13T02:54:04;15.80;99.90
21318;DHT22;10818;50.830;6.524;2023-07-13T02:59:05;15.70;99.90
21318;DHT22;10818;50.830;6.524;2023-07-13T03:04:05;15.50;99.90
21318;DHT22;10818;50.830;6.524;2023-07-13T03:09:06;15.40;99.90
21318;DHT22;10818;50.830;6.524;2023-07-13T03:14:07;15.40;99.90
21318;DHT22;10818;50.830;6.524;2023-07-13T03:19:08;15.50;99.90
21318;DHT22;10818;50.830;6.524;2023-07-13T03:24:09;15.30;99.90
21318;DHT22;10818;50.830;6.524;2023-07-13T03:29:10;15.30;99.90
21318;DHT22;10818;50.830;6.524;2023-07-13T03:34:10;15.40;99.90
21318;DHT22;10818;50.830;6.524;2023-07-13T03:39:11;15.30;99.90
21318;DHT22;10818;50.830;6.524;2023-07-13T03:44:11;15.40;99.90
21318;DHT22;10818;50.830;6.524;2023-07-13T03:49:12;15.40;99.90
21318;DHT22;10818;50.830;6.524;2023-07-13T03:54:12;15.50;99.90
21318;DHT22;10818;50.830;6.524;2023-07-13T03:59:13;15.50;99.90
21318;DHT22;10818;50.830;6.524;2023-07-13T04:04:13;15.60;99.90
21318;DHT22;10818;50.830;6.524;2023-07-13T04:09:14;15.70;99.90
21318;DHT22;10818;50.830;6.524;2023-07-13T04:14:14;15.80;99.90
21318;DHT22;10818;50.830;6.524;2023-07-13T04:19:15;16.10;99.90
21318;DHT22;10818;50.830;6.524;2023-07-13T04:24:17;16.20;99.90
21318;DHT22;10818;50.830;6.524;2023-07-13T04:29:17;16.40;99.90
21318;DHT22;10818;50.830;6.524;2023-07-13T04:34:17;16.60;99.90
21318;DHT22;10818;50.830;6.524;2023-07-13T04:39:18;16.80;99.90
21318;DHT22;10818;50.830;6.524;2023-07-13T04:44:18;17.10;99.90
21318;DHT22;10818;50.830;6.524;2023-07-13T04:49:19;17.30;99.90
21318;DHT22;10818;50.830;6.524;2023-07-13T04:54:19;17.40;99.90
21318;DHT22;10818;50.830;6.524;2023-07-13T04:59:20;17.60;99.90
21318;DHT22;10818;50.830;6.524;2023-07-13T05:04:20;17.80;99.90
21318;DHT22;10818;50.830;6.524;2023-07-13T05:09:20;17.90;99.90
21318;DHT22;10818;50.830;6.524;2023-07-13T05:14:21;17.90;99.90
21318;DHT22;10818;50.830;6.524;2023-07-13T05:19:21;18.20;99.90
21318;DHT22;10818;50.830;6.524;2023-07-13T05:24:22;18.30;99.90
21318;DHT22;10818;50.830;6.524;2023-07-13T05:29:22;18.70;99.90
21318;DHT22;10818;50.830;6.524;2023-07-13T05:34:23;19.00;99.90
21318;DHT22;10818;50.830;6.524;2023-07-13T05:39:23;19.40;99.90
21318;DHT22;10818;50.830;6.524;2023-07-13T05:44:24;19.50;99.90
21318;DHT22;10818;50.830;6.524;2023-07-13T05:49:25;19.60;99.90
21318;DHT22;10818;50.830;6.524;2023-07-13T05:54:26;19.70;99.90
21318;DHT22;10818;50.830;6.524;2023-07-13T05:59:26;19.50;99.90
21318;DHT22;10818;50.830;6.524;2023-07-13T06:04:27;19.90;99.90
21318;DHT22;10818;50.830;6.524;2023-07-13T06:09:27;20.20;99.90
21318;DHT22;10818;50.830;6.524;2023-07-13T06:14:28;20.40;99.90
21318;DHT22;10818;50.830;6.524;2023-07-13T06:19:28;20.60;99.90
21318;DHT22;10818;50.830;6.524;2023-07-13T06:24:29;20.30;99.90
21318;DHT22;10818;50.830;6.524;2023-07-13T06:29:29;20.20;99.90
21318;DHT22;10818;50.830;6.524;2023-07-13T06:34:30;21.10;99.90
21318;DHT22;10818;50.830;6.524;2023-07-13T06:39:30;24.60;99.90
21318;DHT22;10818;50.830;6.524;2023-07-13T06:44:31;26.40;99.90
21318;DHT22;10818;50.830;6.524;2023-07-13T06:49:31;28.40;99.90
21318;DHT22;10818;50.830;6.524;2023-07-13T06:54:32;29.00;96.90
21318;DHT22;10818;50.830;6.524;2023-07-13T06:59:32;29.90;94.00
21318;DHT22;10818;50.830;6.524;2023-07-13T07:04:33;30.40;92.10
21318;DHT22;10818;50.830;6.524;2023-07-13T07:09:33;28.70;92.20
21318;DHT22;10818;50.830;6.524;2023-07-13T07:14:33;28.90;93.10
21318;DHT22;10818;50.830;6.524;2023-07-13T07:19:34;28.20;93.00
21318;DHT22;10818;50.830;6.524;2023-07-13T07:24:35;28.70;92.50
21318;DHT22;10818;50.830;6.524;2023-07-13T07:29:35;28.70;92.40
21318;DHT22;10818;50.830;6.524;2023-07-13T07:34:36;31.30;88.10
21318;DHT22;10818;50.830;6.524;2023-07-13T07:39:36;33.90;78.70
21318;DHT22;10818;50.830;6.524;2023-07-13T07:44:37;35.00;72.50
21318;DHT22;10818;50.830;6.524;2023-07-13T07:49:37;36.70;67.50
21318;DHT22;10818;50.830;6.524;2023-07-13T07:54:38;36.00;65.30
21318;DHT22;10818;50.830;6.524;2023-07-13T07:59:38;37.70;60.20
21318;DHT22;10818;50.830;6.524;2023-07-13T08:04:39;36.40;61.30
21318;DHT22;10818;50.830;6.524;2023-07-13T08:09:39;34.40;63.60
21318;DHT22;10818;50.830;6.524;2023-07-13T08:14:40;34.00;64.00
21318;DHT22;10818;50.830;6.524;2023-07-13T08:19:40;33.80;64.80
21318;DHT22;10818;50.830;6.524;2023-07-13T08:24:41;33.20;65.80
21318;DHT22;10818;50.830;6.524;2023-07-13T08:29:42;33.90;65.30
21318;DHT22;10818;50.830;6.524;2023-07-13T08:34:43;32.50;67.60
21318;DHT22;10818;50.830;6.524;2023-07-13T08:39:44;30.60;69.50
21318;DHT22;10818;50.830;6.524;2023-07-13T08:44:55;29.20;74.30
21318;DHT22;10818;50.830;6.524;2023-07-13T08:49:57;27.90;76.80
21318;DHT22;10818;50.830;6.524;2023-07-13T08:54:58;27.30;79.70
21318;DHT22;10818;50.830;6.524;2023-07-13T09:00:02;26.60;82.30
21318;DHT22;10818;50.830;6.524;2023-07-13T09:05:18;26.40;84.00
21318;DHT22;10818;50.830;6.524;2023-07-13T09:10:23;26.60;83.90
21318;DHT22;10818;50.830;6.524;2023-07-13T09:15:30;27.10;83.50
21318;DHT22;10818;50.830;6.524;2023-07-13T09:20:34;26.90;84.40
21318;DHT22;10818;50.830;6.524;2023-07-13T09:25:36;26.60;85.10
21318;DHT22;10818;50.830;6.524;2023-07-13T09:30:47;26.60;85.40
21318;DHT22;10818;50.830;6.524;2023-07-13T09:35:49;26.60;84.80
21318;DHT22;10818;50.830;6.524;2023-07-13T09:45:59;26.90;83.90
21318;DHT22;10818;50.830;6.524;2023-07-13T09:51:04;27.10;84.10
21318;DHT22;10818;50.830;6.524;2023-07-13T09:56:17;26.80;84.50
21318;DHT22;10818;50.830;6.524;2023-07-13T10:01:32;27.20;87.00
21318;DHT22;10818;50.830;6.524;2023-07-13T10:06:33;27.40;82.60
21318;DHT22;10818;50.830;6.524;2023-07-13T10:11:34;27.50;82.90
21318;DHT22;10818;50.830;6.524;2023-07-13T10:16:35;27.10;84.10
21318;DHT22;10818;50.830;6.524;2023-07-13T10:21:38;27.10;84.50
21318;DHT22;10818;50.830;6.524;2023-07-13T10:26:41;27.60;83.50
21318;DHT22;10818;50.830;6.524;2023-07-13T10:31:44;27.70;83.10
21318;DHT22;10818;50.830;6.524;2023-07-13T10:36:45;27.70;82.80
21318;DHT22;10818;50.830;6.524;2023-07-13T10:41:47;27.70;84.20
21318;DHT22;10818;50.830;6.524;2023-07-13T10:46:49;27.50;83.40
21318;DHT22;10818;50.830;6.524;2023-07-13T10:51:50;27.60;81.90
21318;DHT22;10818;50.830;6.524;2023-07-13T10:56:53;27.30;83.40
21318;DHT22;10818;50.830;6.524;2023-07-13T11:02:11;27.10;83.60
21318;DHT22;10818;50.830;6.524;2023-07-13T11:07:26;26.80;82.90
21318;DHT22;10818;50.830;6.524;2023-07-13T11:12:28;26.40;83.50
21318;DHT22;10818;50.830;6.524;2023-07-13T11:17:53;26.00;85.60
21318;DHT22;10818;50.830;6.524;2023-07-13T11:23:08;26.20;86.40
21318;DHT22;10818;50.830;6.524;2023-07-13T11:33:22;26.10;85.30
21318;DHT22;10818;50.830;6.524;2023-07-13T11:38:28;25.90;88.30
21318;DHT22;10818;50.830;6.524;2023-07-13T11:43:30;25.60;88.00
21318;DHT22;10818;50.830;6.524;2023-07-13T11:48:31;26.00;88.30
21318;DHT22;10818;50.830;6.524;2023-07-13T11:53:37;26.50;85.80
21318;DHT22;10818;50.830;6.524;2023-07-13T11:58:39;26.30;83.90
21318;DHT22;10818;50.830;6.524;2023-07-13T12:03:39;25.80;83.90
21318;DHT22;10818;50.830;6.524;2023-07-13T12:08:40;25.70;85.60
21318;DHT22;10818;50.830;6.524;2023-07-13T12:13:40;25.50;86.90
21318;DHT22;10818;50.830;6.524;2023-07-13T12:18:42;25.70;86.50
21318;DHT22;10818;50.830;6.524;2023-07-13T12:23:47;26.20;84.10
21318;DHT22;10818;50.830;6.524;2023-07-13T12:28:49;26.50;85.00
21318;DHT22;10818;50.830;6.524;2023-07-13T12:33:56;26.50;85.70
21318;DHT22;10818;50.830;6.524;2023-07-13T12:38:59;26.50;87.80
21318;DHT22;10818;50.830;6.524;2023-07-13T12:44:04;26.70;86.60
21318;DHT22;10818;50.830;6.524;2023-07-13T12:49:06;27.10;82.70
21318;DHT22;10818;50.830;6.524;2023-07-13T12:54:26;27.10;81.90
21318;DHT22;10818;50.830;6.524;2023-07-13T12:59:29;27.40;80.20
21318;DHT22;10818;50.830;6.524;2023-07-13T13:04:30;27.40;79.20
21318;DHT22;10818;50.830;6.524;2023-07-13T13:09:31;27.40;79.50
21318;DHT22;10818;50.830;6.524;2023-07-13T13:14:31;27.10;81.60
21318;DHT22;10818;50.830;6.524;2023-07-13T13:19:32;26.80;80.30
21318;DHT22;10818;50.830;6.524;2023-07-13T13:24:32;27.30;80.10
21318;DHT22;10818;50.830;6.524;2023-07-13T13:29:33;27.00;78.80
21318;DHT22;10818;50.830;6.524;2023-07-13T13:34:34;27.10;80.20
21318;DHT22;10818;50.830;6.524;2023-07-13T13:39:35;27.30;79.10
21318;DHT22;10818;50.830;6.524;2023-07-13T13:44:36;27.60;80.20
21318;DHT22;10818;50.830;6.524;2023-07-13T13:49:36;27.10;79.50
21318;DHT22;10818;50.830;6.524;2023-07-13T13:54:37;27.30;81.00
21318;DHT22;10818;50.830;6.524;2023-07-13T13:59:38;27.20;78.50
21318;DHT22;10818;50.830;6.524;2023-07-13T14:04:39;27.10;77.60
21318;DHT22;10818;50.830;6.524;2023-07-13T14:09:40;27.00;78.20
21318;DHT22;10818;50.830;6.524;2023-07-13T14:14:40;27.30;77.80
21318;DHT22;10818;50.830;6.524;2023-07-13T14:19:41;27.20;78.70
21318;DHT22;10818;50.830;6.524;2023-07-13T14:24:42;27.10;79.80
21318;DHT22;10818;50.830;6.524;2023-07-13T14:29:42;27.40;81.20
21318;DHT22;10818;50.830;6.524;2023-07-13T14:34:43;27.50;78.60
21318;DHT22;10818;50.830;6.524;2023-07-13T14:39:44;27.70;76.80
21318;DHT22;10818;50.830;6.524;2023-07-13T14:44:44;27.50;77.00
21318;DHT22;10818;50.830;6.524;2023-07-13T14:49:45;27.10;77.20
21318;DHT22;10818;50.830;6.524;2023-07-13T14:54:48;27.30;77.90
21318;DHT22;10818;50.830;6.524;2023-07-13T14:59:48;26.90;77.70
21318;DHT22;10818;50.830;6.524;2023-07-13T15:04:49;26.90;80.00
21318;DHT22;10818;50.830;6.524;2023-07-13T15:09:50;26.80;77.90
21318;DHT22;10818;50.830;6.524;2023-07-13T15:14:51;26.80;78.00
21318;DHT22;10818;50.830;6.524;2023-07-13T15:19:51;26.50;78.60
21318;DHT22;10818;50.830;6.524;2023-07-13T15:24:52;26.40;79.70
21318;DHT22;10818;50.830;6.524;2023-07-13T15:29:52;26.20;79.60
21318;DHT22;10818;50.830;6.524;2023-07-13T15:34:53;26.40;81.40
21318;DHT22;10818;50.830;6.524;2023-07-13T15:39:53;26.00;81.90
21318;DHT22;10818;50.830;6.524;2023-07-13T15:44:54;25.30;86.30
21318;DHT22;10818;50.830;6.524;2023-07-13T15:49:54;24.50;90.40
21318;DHT22;10818;50.830;6.524;2023-07-13T15:54:55;24.40;92.30
21318;DHT22;10818;50.830;6.524;2023-07-13T15:59:58;24.10;93.30
21318;DHT22;10818;50.830;6.524;2023-07-13T16:04:59;23.70;94.70
21318;DHT22;10818;50.830;6.524;2023-07-13T16:10:00;23.50;95.60
21318;DHT22;10818;50.830;6.524;2023-07-13T16:15:00;23.80;95.70
21318;DHT22;10818;50.830;6.524;2023-07-13T16:20:01;23.90;96.00
21318;DHT22;10818;50.830;6.524;2023-07-13T16:25:01;24.00;95.90
21318;DHT22;10818;50.830;6.524;2023-07-13T16:35:18;23.70;96.50
21318;DHT22;10818;50.830;6.524;2023-07-13T16:40:23;24.00;96.70
21318;DHT22;10818;50.830;6.524;2023-07-13T16:45:26;24.40;96.20
21318;DHT22;10818;50.830;6.524;2023-07-13T16:50:29;24.50;95.90
21318;DHT22;10818;50.830;6.524;2023-07-13T16:55:30;24.50;95.10
21318;DHT22;10818;50.830;6.524;2023-07-13T17:00:31;24.30;95.40
21318;DHT22;10818;50.830;6.524;2023-07-13T17:05:36;24.50;96.10
21318;DHT22;10818;50.830;6.524;2023-07-13T17:10:39;24.40;95.00
21318;DHT22;10818;50.830;6.524;2023-07-13T17:15:44;24.20;95.80
21318;DHT22;10818;50.830;6.524;2023-07-13T17:20:45;24.10;95.90
21318;DHT22;10818;50.830;6.524;2023-07-13T17:25:47;23.90;96.60
21318;DHT22;10818;50.830;6.524;2023-07-13T17:30:49;23.60;96.80
21318;DHT22;10818;50.830;6.524;2023-07-13T17:35:50;23.70;97.40
21318;DHT22;10818;50.830;6.524;2023-07-13T17:40:51;23.90;97.20
21318;DHT22;10818;50.830;6.524;2023-07-13T17:45:52;24.00;97.90
21318;DHT22;10818;50.830;6.524;2023-07-13T17:50:53;24.30;96.90
21318;DHT22;10818;50.830;6.524;2023-07-13T17:55:55;24.20;96.40
21318;DHT22;10818;50.830;6.524;2023-07-13T18:00:56;24.20;96.30
21318;DHT22;10818;50.830;6.524;2023-07-13T18:05:57;24.30;96.10
21318;DHT22;10818;50.830;6.524;2023-07-13T18:10:58;24.10;96.20
21318;DHT22;10818;50.830;6.524;2023-07-13T18:15:59;23.90;97.10
21318;DHT22;10818;50.830;6.524;2023-07-13T18:20:59;23.70;97.20
21318;DHT22;10818;50.830;6.524;2023-07-13T18:26:01;23.50;97.40
21318;DHT22;10818;50.830;6.524;2023-07-13T18:31:01;23.10;98.70
21318;DHT22;10818;50.830;6.524;2023-07-13T18:36:03;22.70;99.90
21318;DHT22;10818;50.830;6.524;2023-07-13T18:41:04;22.50;99.90
21318;DHT22;10818;50.830;6.524;2023-07-13T18:46:25;22.40;99.90
21318;DHT22;10818;50.830;6.524;2023-07-13T18:51:28;22.30;99.90
21318;DHT22;10818;50.830;6.524;2023-07-13T18:56:29;22.10;99.90
21318;DHT22;10818;50.830;6.524;2023-07-13T19:01:33;22.30;99.90
21318;DHT22;10818;50.830;6.524;2023-07-13T19:06:36;22.10;99.90
21318;DHT22;10818;50.830;6.524;2023-07-13T19:11:37;22.00;99.90
21318;DHT22;10818;50.830;6.524;2023-07-13T19:16:37;21.80;99.90
21318;DHT22;10818;50.830;6.524;2023-07-13T19:21:38;21.60;99.90
21318;DHT22;10818;50.830;6.524;2023-07-13T19:26:39;21.50;99.90
21318;DHT22;10818;50.830;6.524;2023-07-13T19:31:39;21.50;99.90
21318;DHT22;10818;50.830;6.524;2023-07-13T19:36:40;21.60;99.90
21318;DHT22;10818;50.830;6.524;2023-07-13T19:41:41;21.50;99.90
21318;DHT22;10818;50.830;6.524;2023-07-13T19:46:41;21.40;99.90
21318;DHT22;10818;50.830;6.524;2023-07-13T19:51:43;21.30;99.90
21318;DHT22;10818;50.830;6.524;2023-07-13T19:56:43;21.30;99.90
21318;DHT22;10818;50.830;6.524;2023-07-13T20:01:44;21.20;99.90
21318;DHT22;10818;50.830;6.524;2023-07-13T20:06:45;21.00;99.90
21318;DHT22;10818;50.830;6.524;2023-07-13T20:11:46;20.80;99.90
21318;DHT22;10818;50.830;6.524;2023-07-13T20:16:47;20.60;99.90
21318;DHT22;10818;50.830;6.524;2023-07-13T20:21:48;20.40;99.90
21318;DHT22;10818;50.830;6.524;2023-07-13T20:26:48;20.20;99.90
21318;DHT22;10818;50.830;6.524;2023-07-13T20:31:49;19.90;99.90
21318;DHT22;10818;50.830;6.524;2023-07-13T20:36:50;19.80;99.90
21318;DHT22;10818;50.830;6.524;2023-07-13T20:41:50;19.50;99.90
21318;DHT22;10818;50.830;6.524;2023-07-13T20:46:52;19.30;99.90
21318;DHT22;10818;50.830;6.524;2023-07-13T20:51:52;19.10;99.90
21318;DHT22;10818;50.830;6.524;2023-07-13T20:56:53;18.90;99.90
21318;DHT22;10818;50.830;6.524;2023-07-13T21:01:57;18.90;99.90
21318;DHT22;10818;50.830;6.524;2023-07-13T21:06:58;18.80;99.90
21318;DHT22;10818;50.830;6.524;2023-07-13T21:11:58;18.90;99.90
21318;DHT22;10818;50.830;6.524;2023-07-13T21:16:59;19.10;99.90
21318;DHT22;10818;50.830;6.524;2023-07-13T21:21:59;19.20;99.90
21318;DHT22;10818;50.830;6.524;2023-07-13T21:27:00;19.10;99.90
21318;DHT22;10818;50.830;6.524;2023-07-13T21:32:02;18.90;99.90
21318;DHT22;10818;50.830;6.524;2023-07-13T21:37:03;18.50;99.90
21318;DHT22;10818;50.830;6.524;2023-07-13T21:42:04;18.50;99.90
21318;DHT22;10818;50.830;6.524;2023-07-13T21:47:04;18.50;99.90
21318;DHT22;10818;50.830;6.524;2023-07-13T21:52:14;18.50;99.90
21318;DHT22;10818;50.830;6.524;2023-07-13T21:57:15;18.30;99.90
21318;DHT22;10818;50.830;6.524;2023-07-13T22:02:15;18.20;99.90
21318;DHT22;10818;50.830;6.524;2023-07-13T22:07:16;18.10;99.90
21318;DHT22;10818;50.830;6.524;2023-07-13T22:12:16;18.30;99.90
21318;DHT22;10818;50.830;6.524;2023-07-13T22:17:17;18.30;99.90
21318;DHT22;10818;50.830;6.524;2023-07-13T22:22:17;18.10;99.90
21318;DHT22;10818;50.830;6.524;2023-07-13T22:27:18;18.10;99.90
21318;DHT22;10818;50.830;6.524;2023-07-13T22:32:18;18.30;99.90
21318;DHT22;10818;50.830;6.524;2023-07-13T22:37:19;18.40;99.90
21318;DHT22;10818;50.830;6.524;2023-07-13T22:42:19;18.50;99.90
21318;DHT22;10818;50.830;6.524;2023-07-13T22:47:20;18.50;99.90
21318;DHT22;10818;50.830;6.524;2023-07-13T22:52:21;18.60;99.90
21318;DHT22;10818;50.830;6.524;2023-07-13T22:57:21;18.70;99.90
21318;DHT22;10818;50.830;6.524;2023-07-13T23:02:24;18.70;99.90
21318;DHT22;10818;50.830;6.524;2023-07-13T23:07:25;18.90;99.90
21318;DHT22;10818;50.830;6.524;2023-07-13T23:12:26;19.00;99.90
21318;DHT22;10818;50.830;6.524;2023-07-13T23:17:30;18.90;99.90
21318;DHT22;10818;50.830;6.524;2023-07-13T23:22:31;18.90;99.90
21318;DHT22;10818;50.830;6.524;2023-07-13T23:27:31;18.70;99.90
21318;DHT22;10818;50.830;6.524;2023-07-13T23:32:31;18.70;99.90
21318;DHT22;10818;50.830;6.524;2023-07-13T23:37:32;18.70;99.90
21318;DHT22;10818;50.830;6.524;2023-07-13T23:42:33;18.70;99.90
21318;DHT22;10818;50.830;6.524;2023-07-13T23:47:33;18.60;99.90
21318;DHT22;10818;50.830;6.524;2023-07-13T23:52:34;18.70;99.90
21318;DHT22;10818;50.830;6.524;2023-07-13T23:57:34;18.60;99.90
